createdAt,value
2022-08-30T00:03:14.713Z,14.10
2022-08-30T00:08:17.962Z,12.80
2022-08-30T00:13:22.580Z,15.40
2022-08-30T00:18:25.532Z,12.50
2022-08-30T00:23:29.092Z,13.90
2022-08-30T00:28:34.066Z,13.90
2022-08-30T00:33:37.545Z,12.70
2022-08-30T00:38:40.463Z,15.40
2022-08-30T00:43:43.417Z,11.50
2022-08-30T00:48:49.603Z,10.70
2022-08-30T00:53:57.111Z,13.50
2022-08-30T00:59:05.657Z,11.50
2022-08-30T01:04:10.202Z,19.50
2022-08-30T01:09:14.520Z,14.70
2022-08-30T01:14:18.442Z,12.60
2022-08-30T01:19:53.933Z,13.90
2022-08-30T01:25:01.444Z,13.40
2022-08-30T01:30:07.653Z,14.70
2022-08-30T01:35:14.318Z,12.00
2022-08-30T01:40:19.895Z,11.40
2022-08-30T01:45:22.940Z,13.90
2022-08-30T01:50:25.937Z,12.60
2022-08-30T01:55:28.924Z,10.90
2022-08-30T02:00:32.577Z,15.10
2022-08-30T02:05:35.561Z,13.30
2022-08-30T02:10:38.475Z,14.90
2022-08-30T02:15:42.271Z,15.10
2022-08-30T02:20:45.184Z,10.90
2022-08-30T02:25:48.107Z,11.00
2022-08-30T02:30:51.811Z,13.50
2022-08-30T02:35:56.243Z,13.50
2022-08-30T02:40:59.305Z,12.70
2022-08-30T02:46:02.570Z,15.20
2022-08-30T02:51:11.394Z,12.60
2022-08-30T02:56:15.722Z,13.50
2022-08-30T03:01:19.126Z,12.10
2022-08-30T03:06:22.076Z,14.10
2022-08-30T03:11:25.254Z,14.60
2022-08-30T03:36:56.545Z,14.20
2022-08-30T03:41:59.472Z,17.30
2022-08-30T03:47:02.486Z,13.90
2022-08-30T03:52:05.901Z,16.70
2022-08-30T03:57:08.812Z,14.80
2022-08-30T04:02:20.855Z,15.60
2022-08-30T04:17:30.256Z,16.00
2022-08-30T04:22:33.244Z,14.30
2022-08-30T04:27:36.292Z,15.80
2022-08-30T04:32:40.278Z,16.60
2022-08-30T04:37:43.230Z,16.30
2022-08-30T04:42:46.550Z,15.40
2022-08-30T04:47:49.588Z,19.20
2022-08-30T04:52:52.521Z,21.20
2022-08-30T04:57:56.686Z,20.90
2022-08-30T05:03:00.826Z,18.80
2022-08-30T05:08:04.363Z,19.70
2022-08-30T05:13:08.107Z,19.90
2022-08-30T05:18:14.241Z,22.20
2022-08-30T05:23:17.811Z,25.40
2022-08-30T05:28:24.312Z,24.40
2022-08-30T05:33:29.549Z,24.40
2022-08-30T05:38:32.467Z,19.00
2022-08-30T05:43:36.640Z,21.70
2022-08-30T05:48:40.895Z,24.10
2022-08-30T05:53:45.140Z,21.40
2022-08-30T05:58:48.496Z,21.80
2022-08-30T06:03:55.254Z,22.50
2022-08-30T06:08:58.737Z,19.00
2022-08-30T06:14:02.632Z,17.30
2022-08-30T06:19:08.616Z,18.50
2022-08-30T06:24:12.456Z,19.20
2022-08-30T06:29:19.015Z,18.90
2022-08-30T06:34:22.030Z,17.50
2022-08-30T06:39:24.912Z,17.10
2022-08-30T06:44:27.981Z,16.40
2022-08-30T06:49:33.705Z,20.20
2022-08-30T06:54:36.646Z,18.70
2022-08-30T06:59:40.268Z,18.30
2022-08-30T07:04:43.214Z,18.80
2022-08-30T07:09:46.287Z,19.30
2022-08-30T07:19:52.565Z,21.50
2022-08-30T07:29:58.941Z,19.70
2022-08-30T07:35:01.889Z,21.80
2022-08-30T07:45:10.413Z,17.00
2022-08-30T07:50:13.990Z,21.30
2022-08-30T07:55:17.220Z,15.30
2022-08-30T08:00:20.618Z,12.60
2022-08-30T08:05:24.903Z,12.50
2022-08-30T08:10:28.086Z,11.40
2022-08-30T08:15:33.013Z,9.70
2022-08-30T08:20:36.422Z,11.60
2022-08-30T08:25:41.227Z,11.70
2022-08-30T08:30:48.147Z,10.70
2022-08-30T08:35:51.434Z,11.20
2022-08-30T08:46:28.599Z,14.80
2022-08-30T08:51:54.570Z,12.30
2022-08-30T08:56:57.559Z,11.00
2022-08-30T09:07:20.385Z,8.30
2022-08-30T09:12:23.336Z,9.40
2022-08-30T09:22:46.668Z,9.30
2022-08-30T09:27:52.796Z,7.10
2022-08-30T09:33:22.657Z,8.30
2022-08-30T09:38:34.452Z,7.70
2022-08-30T09:43:37.326Z,7.90
2022-08-30T09:48:47.560Z,7.40
2022-08-30T09:54:26.335Z,8.10
2022-08-30T10:00:03.891Z,15.60
2022-08-30T10:05:48.619Z,6.00
2022-08-30T10:11:19.510Z,5.90
2022-08-30T10:17:13.599Z,7.20
2022-08-30T10:22:30.351Z,6.60
2022-08-30T10:27:45.991Z,6.10
2022-08-30T10:33:06.831Z,5.80
2022-08-30T10:38:46.839Z,5.90
2022-08-30T10:44:13.726Z,6.00
2022-08-30T10:49:27.707Z,8.30
2022-08-30T10:54:47.592Z,6.80
2022-08-30T10:59:58.660Z,7.20
2022-08-30T11:05:36.272Z,11.00
2022-08-30T11:10:58.455Z,9.60
2022-08-30T11:16:11.268Z,7.10
2022-08-30T11:21:38.328Z,7.80
2022-08-30T11:26:48.519Z,8.60
2022-08-30T11:31:51.713Z,6.80
2022-08-30T11:36:55.162Z,6.30
2022-08-30T11:42:32.078Z,6.40
2022-08-30T11:47:48.344Z,6.00
2022-08-30T11:53:03.208Z,4.50
2022-08-30T11:58:20.523Z,4.90
2022-08-30T12:03:33.890Z,5.90
2022-08-30T12:08:55.115Z,4.40
2022-08-30T12:14:08.243Z,6.30
2022-08-30T12:19:21.253Z,5.60
2022-08-30T12:24:51.746Z,6.40
2022-08-30T12:30:03.059Z,6.30
2022-08-30T12:35:07.589Z,7.20
2022-08-30T12:40:23.152Z,5.80
2022-08-30T12:45:43.085Z,4.10
2022-08-30T12:50:53.956Z,6.50
2022-08-30T12:56:12.811Z,2.70
2022-08-30T13:01:27.573Z,3.40
2022-08-30T13:06:52.787Z,4.90
2022-08-30T13:11:56.712Z,5.70
2022-08-30T13:17:09.806Z,4.00
2022-08-30T13:22:28.079Z,2.80
2022-08-30T13:27:36.956Z,4.20
2022-08-30T13:32:40.398Z,4.10
2022-08-30T13:37:50.090Z,3.40
2022-08-30T13:42:53.964Z,3.20
2022-08-30T13:52:59.647Z,3.90
2022-08-30T13:58:02.977Z,4.30
2022-08-30T14:03:05.903Z,6.50
2022-08-30T14:13:35.562Z,6.30
2022-08-30T14:18:39.913Z,4.60
2022-08-30T14:23:42.937Z,3.40
2022-08-30T14:28:46.498Z,1.80
2022-08-30T14:33:54.637Z,5.10
2022-08-30T14:38:58.378Z,2.40
2022-08-30T14:44:01.393Z,1.80
2022-08-30T14:49:05.777Z,2.70
2022-08-30T14:54:10.394Z,2.60
2022-08-30T14:59:14.240Z,1.10
2022-08-30T15:04:17.802Z,2.90
2022-08-30T15:09:26.025Z,1.90
2022-08-30T15:14:31.535Z,3.20
2022-08-30T15:19:34.473Z,1.50
2022-08-30T15:29:40.312Z,3.10
2022-08-30T15:34:43.675Z,2.30
2022-08-30T15:39:58.102Z,3.10
2022-08-30T15:45:01.863Z,2.30
2022-08-30T15:50:07.320Z,1.70
2022-08-30T15:55:10.455Z,3.00
2022-08-30T16:00:14.781Z,2.30
2022-08-30T16:05:18.026Z,3.40
2022-08-30T16:10:21.366Z,5.00
2022-08-30T16:15:24.447Z,3.50
2022-08-30T16:20:27.804Z,2.40
2022-08-30T16:25:40.841Z,1.90
2022-08-30T16:30:44.498Z,2.60
2022-08-30T16:35:57.262Z,6.40
2022-08-30T16:41:09.110Z,5.40
2022-08-30T16:46:17.668Z,3.00
2022-08-30T16:51:25.155Z,4.10
2022-08-30T16:56:31.002Z,3.60
2022-08-30T17:01:42.375Z,2.30
2022-08-30T17:06:47.955Z,4.60
2022-08-30T17:11:53.214Z,4.20
2022-08-30T17:17:00.654Z,3.70
2022-08-30T17:22:04.266Z,4.70
2022-08-30T17:27:07.681Z,3.40
2022-08-30T17:32:10.803Z,2.70
2022-08-30T17:37:16.377Z,8.30
2022-08-30T17:42:19.997Z,4.40
2022-08-30T17:47:23.410Z,5.80
2022-08-30T17:52:28.108Z,7.00
2022-08-30T17:57:31.509Z,6.00
2022-08-30T18:02:34.466Z,4.50
2022-08-30T18:12:40.256Z,7.90
2022-08-30T18:17:47.862Z,4.90
2022-08-30T18:22:50.759Z,5.00
2022-08-30T18:27:59.016Z,4.50
2022-08-30T18:33:02.766Z,5.10
2022-08-30T18:38:06.008Z,6.30
2022-08-30T18:48:14.455Z,5.60
2022-08-30T18:53:28.349Z,6.00
2022-08-30T18:58:32.063Z,5.90
2022-08-30T19:03:35.659Z,5.90
2022-08-30T19:08:41.482Z,6.20
2022-08-30T19:13:48.849Z,7.20
2022-08-30T19:18:54.505Z,7.60
2022-08-30T19:23:57.489Z,5.20
2022-08-30T19:29:01.736Z,7.60
2022-08-30T19:34:05.297Z,5.20
2022-08-30T19:39:10.094Z,8.30
2022-08-30T19:44:13.260Z,7.40
2022-08-30T19:54:19.640Z,5.90
2022-08-30T19:59:22.849Z,8.20
2022-08-30T20:09:29.894Z,5.40
2022-08-30T20:14:32.845Z,5.90
2022-08-30T20:19:36.151Z,6.40
2022-08-30T20:24:43.433Z,9.10
2022-08-30T20:29:46.967Z,7.90
2022-08-30T20:34:50.376Z,8.70
2022-08-30T20:39:57.311Z,9.10
2022-08-30T20:45:00.493Z,7.20
2022-08-30T20:50:13.568Z,7.50
2022-08-30T20:55:17.551Z,6.50
2022-08-30T21:00:20.696Z,6.50
2022-08-30T21:05:24.805Z,5.80
2022-08-30T21:10:28.089Z,7.20
2022-08-30T21:15:37.704Z,7.00
2022-08-30T21:20:41.828Z,5.20
2022-08-30T21:25:44.755Z,7.30
2022-08-30T21:30:47.689Z,6.80
2022-08-30T21:36:09.602Z,6.60
2022-08-30T21:41:13.635Z,6.00
2022-08-30T21:46:17.923Z,5.20
2022-08-30T21:51:21.689Z,6.20
2022-08-30T21:56:25.112Z,6.10
2022-08-30T22:01:30.717Z,6.10
2022-08-30T22:06:36.054Z,7.10
2022-08-30T22:11:39.528Z,5.90
2022-08-30T22:16:42.618Z,8.70
2022-08-30T22:26:51.689Z,6.20
2022-08-30T22:31:54.733Z,6.70
2022-08-30T22:42:00.885Z,6.70
2022-08-30T22:47:03.858Z,6.50
2022-08-30T22:52:06.811Z,7.30
2022-08-30T22:57:09.814Z,6.00
2022-08-30T23:02:12.818Z,8.40
2022-08-30T23:07:15.705Z,6.70
2022-08-30T23:12:18.668Z,5.90
2022-08-30T23:17:22.406Z,6.10
2022-08-30T23:22:31.676Z,5.60
2022-08-30T23:27:53.506Z,7.00
2022-08-30T23:33:14.840Z,6.00
2022-08-30T23:38:36.292Z,5.80
2022-08-30T23:43:58.249Z,4.80
2022-08-30T23:49:19.905Z,6.10
2022-08-30T23:54:43.240Z,5.90
